sensor_id;sensor_type;location;lat;lon;timestamp;temperature;humidity
12833;DHT22;6483;51.310;4.462;2022-12-19T00:01:39;2.50;99.90
12833;DHT22;6483;51.310;4.462;2022-12-19T00:04:07;5.20;99.90
12833;DHT22;6483;51.310;4.462;2022-12-19T00:06:33;4.40;99.90
12833;DHT22;6483;51.310;4.462;2022-12-19T00:09:02;2.60;99.90
12833;DHT22;6483;51.310;4.462;2022-12-19T00:11:29;2.60;99.90
12833;DHT22;6483;51.310;4.462;2022-12-19T00:13:56;3.00;99.90
12833;DHT22;6483;51.310;4.462;2022-12-19T00:16:24;3.00;99.90
12833;DHT22;6483;51.310;4.462;2022-12-19T00:18:53;3.30;99.90
12833;DHT22;6483;51.310;4.462;2022-12-19T00:21:24;5.40;99.90
12833;DHT22;6483;51.310;4.462;2022-12-19T00:23:53;3.00;99.90
12833;DHT22;6483;51.310;4.462;2022-12-19T00:26:28;3.00;99.90
12833;DHT22;6483;51.310;4.462;2022-12-19T00:29:00;3.00;99.90
12833;DHT22;6483;51.310;4.462;2022-12-19T00:31:29;3.10;99.90
12833;DHT22;6483;51.310;4.462;2022-12-19T00:33:56;3.20;99.90
12833;DHT22;6483;51.310;4.462;2022-12-19T00:36:27;3.20;99.90
12833;DHT22;6483;51.310;4.462;2022-12-19T00:38:55;3.20;99.90
12833;DHT22;6483;51.310;4.462;2022-12-19T00:41:29;3.30;99.90
12833;DHT22;6483;51.310;4.462;2022-12-19T00:43:58;3.30;99.90
12833;DHT22;6483;51.310;4.462;2022-12-19T00:46:25;3.40;99.90
12833;DHT22;6483;51.310;4.462;2022-12-19T00:48:51;3.40;99.90
12833;DHT22;6483;51.310;4.462;2022-12-19T00:51:20;3.60;99.90
12833;DHT22;6483;51.310;4.462;2022-12-19T00:53:47;3.60;99.90
12833;DHT22;6483;51.310;4.462;2022-12-19T00:56:18;3.60;99.90
12833;DHT22;6483;51.310;4.462;2022-12-19T00:58:45;3.60;99.90
12833;DHT22;6483;51.310;4.462;2022-12-19T01:01:20;3.70;99.90
12833;DHT22;6483;51.310;4.462;2022-12-19T01:03:46;3.70;99.90
12833;DHT22;6483;51.310;4.462;2022-12-19T01:06:15;3.80;99.90
12833;DHT22;6483;51.310;4.462;2022-12-19T01:08:45;3.80;99.90
12833;DHT22;6483;51.310;4.462;2022-12-19T01:11:12;3.90;99.90
12833;DHT22;6483;51.310;4.462;2022-12-19T01:13:39;3.90;99.90
12833;DHT22;6483;51.310;4.462;2022-12-19T01:16:15;4.20;99.90
12833;DHT22;6483;51.310;4.462;2022-12-19T01:18:42;4.00;99.90
12833;DHT22;6483;51.310;4.462;2022-12-19T01:21:11;4.00;99.90
12833;DHT22;6483;51.310;4.462;2022-12-19T01:23:39;4.00;99.90
12833;DHT22;6483;51.310;4.462;2022-12-19T01:26:05;4.10;99.90
12833;DHT22;6483;51.310;4.462;2022-12-19T01:28:31;4.10;99.90
12833;DHT22;6483;51.310;4.462;2022-12-19T01:30:56;4.10;99.90
12833;DHT22;6483;51.310;4.462;2022-12-19T01:33:25;5.60;99.90
12833;DHT22;6483;51.310;4.462;2022-12-19T01:35:54;5.60;99.90
12833;DHT22;6483;51.310;4.462;2022-12-19T01:38:19;4.30;99.90
12833;DHT22;6483;51.310;4.462;2022-12-19T01:40:53;5.40;99.90
12833;DHT22;6483;51.310;4.462;2022-12-19T01:43:26;4.40;99.90
12833;DHT22;6483;51.310;4.462;2022-12-19T01:46:09;4.50;99.90
12833;DHT22;6483;51.310;4.462;2022-12-19T01:48:43;4.50;99.90
12833;DHT22;6483;51.310;4.462;2022-12-19T01:51:15;4.60;99.90
12833;DHT22;6483;51.310;4.462;2022-12-19T01:53:45;4.70;99.90
12833;DHT22;6483;51.310;4.462;2022-12-19T01:56:18;4.70;99.90
12833;DHT22;6483;51.310;4.462;2022-12-19T01:58:51;4.80;99.90
12833;DHT22;6483;51.310;4.462;2022-12-19T02:01:18;4.90;99.90
12833;DHT22;6483;51.310;4.462;2022-12-19T02:03:47;5.30;99.90
12833;DHT22;6483;51.310;4.462;2022-12-19T02:06:14;5.00;99.90
12833;DHT22;6483;51.310;4.462;2022-12-19T02:08:43;5.00;99.90
12833;DHT22;6483;51.310;4.462;2022-12-19T02:11:10;5.00;99.90
12833;DHT22;6483;51.310;4.462;2022-12-19T02:13:36;5.10;99.90
12833;DHT22;6483;51.310;4.462;2022-12-19T02:16:31;5.20;99.90
12833;DHT22;6483;51.310;4.462;2022-12-19T02:31:02;5.30;99.90
12833;DHT22;6483;51.310;4.462;2022-12-19T02:33:40;5.40;99.90
12833;DHT22;6483;51.310;4.462;2022-12-19T02:36:44;5.40;99.90
12833;DHT22;6483;51.310;4.462;2022-12-19T02:39:47;5.50;99.90
12833;DHT22;6483;51.310;4.462;2022-12-19T02:42:43;5.50;99.90
12833;DHT22;6483;51.310;4.462;2022-12-19T02:45:13;5.60;99.90
12833;DHT22;6483;51.310;4.462;2022-12-19T02:47:59;5.60;99.90
12833;DHT22;6483;51.310;4.462;2022-12-19T02:50:46;5.90;99.90
12833;DHT22;6483;51.310;4.462;2022-12-19T02:53:14;5.60;99.90
12833;DHT22;6483;51.310;4.462;2022-12-19T02:56:07;5.70;99.90
12833;DHT22;6483;51.310;4.462;2022-12-19T03:01:48;5.90;99.90
12833;DHT22;6483;51.310;4.462;2022-12-19T03:07:54;6.00;99.90
12833;DHT22;6483;51.310;4.462;2022-12-19T03:10:41;6.20;99.90
12833;DHT22;6483;51.310;4.462;2022-12-19T03:13:20;6.20;99.90
12833;DHT22;6483;51.310;4.462;2022-12-19T03:15:50;6.40;99.90
12833;DHT22;6483;51.310;4.462;2022-12-19T03:18:36;6.40;99.90
12833;DHT22;6483;51.310;4.462;2022-12-19T03:21:34;6.50;99.90
12833;DHT22;6483;51.310;4.462;2022-12-19T03:24:01;6.50;99.90
12833;DHT22;6483;51.310;4.462;2022-12-19T03:27:01;6.50;99.90
12833;DHT22;6483;51.310;4.462;2022-12-19T03:29:55;6.60;99.90
12833;DHT22;6483;51.310;4.462;2022-12-19T03:32:24;6.60;99.90
12833;DHT22;6483;51.310;4.462;2022-12-19T03:35:18;6.60;99.90
12833;DHT22;6483;51.310;4.462;2022-12-19T03:37:49;6.70;99.90
12833;DHT22;6483;51.310;4.462;2022-12-19T03:40:37;6.70;99.90
12833;DHT22;6483;51.310;4.462;2022-12-19T03:43:24;6.70;99.90
12833;DHT22;6483;51.310;4.462;2022-12-19T03:46:03;6.70;99.90
12833;DHT22;6483;51.310;4.462;2022-12-19T03:48:52;6.70;99.90
12833;DHT22;6483;51.310;4.462;2022-12-19T03:51:43;6.70;99.90
12833;DHT22;6483;51.310;4.462;2022-12-19T03:54:27;6.70;99.90
12833;DHT22;6483;51.310;4.462;2022-12-19T03:57:10;6.80;99.90
12833;DHT22;6483;51.310;4.462;2022-12-19T04:00:03;6.80;99.90
12833;DHT22;6483;51.310;4.462;2022-12-19T04:02:29;6.80;99.90
12833;DHT22;6483;51.310;4.462;2022-12-19T04:05:20;6.80;99.90
12833;DHT22;6483;51.310;4.462;2022-12-19T04:07:47;6.90;99.90
12833;DHT22;6483;51.310;4.462;2022-12-19T04:10:19;6.90;99.90
12833;DHT22;6483;51.310;4.462;2022-12-19T04:13:00;6.90;99.90
12833;DHT22;6483;51.310;4.462;2022-12-19T04:15:58;6.90;99.90
12833;DHT22;6483;51.310;4.462;2022-12-19T04:18:31;6.90;99.90
12833;DHT22;6483;51.310;4.462;2022-12-19T04:21:01;6.90;99.90
12833;DHT22;6483;51.310;4.462;2022-12-19T04:23:37;6.90;99.90
12833;DHT22;6483;51.310;4.462;2022-12-19T04:26:06;7.00;99.90
12833;DHT22;6483;51.310;4.462;2022-12-19T04:28:41;7.00;99.90
12833;DHT22;6483;51.310;4.462;2022-12-19T04:31:13;7.00;99.90
12833;DHT22;6483;51.310;4.462;2022-12-19T04:33:41;7.00;99.90
12833;DHT22;6483;51.310;4.462;2022-12-19T04:36:10;7.00;99.90
12833;DHT22;6483;51.310;4.462;2022-12-19T04:38:37;7.10;99.90
12833;DHT22;6483;51.310;4.462;2022-12-19T04:41:03;7.10;99.90
12833;DHT22;6483;51.310;4.462;2022-12-19T04:43:28;7.10;99.90
12833;DHT22;6483;51.310;4.462;2022-12-19T04:45:54;7.10;99.90
12833;DHT22;6483;51.310;4.462;2022-12-19T04:48:20;7.10;99.90
12833;DHT22;6483;51.310;4.462;2022-12-19T04:50:49;7.20;99.90
12833;DHT22;6483;51.310;4.462;2022-12-19T04:53:15;7.20;99.90
12833;DHT22;6483;51.310;4.462;2022-12-19T04:55:41;7.20;99.90
12833;DHT22;6483;51.310;4.462;2022-12-19T04:58:09;7.20;99.90
12833;DHT22;6483;51.310;4.462;2022-12-19T05:00:35;7.20;99.90
12833;DHT22;6483;51.310;4.462;2022-12-19T05:03:01;7.20;99.90
12833;DHT22;6483;51.310;4.462;2022-12-19T05:05:27;7.20;99.90
12833;DHT22;6483;51.310;4.462;2022-12-19T05:07:55;7.20;99.90
12833;DHT22;6483;51.310;4.462;2022-12-19T05:10:24;7.20;99.90
12833;DHT22;6483;51.310;4.462;2022-12-19T05:12:54;7.30;99.90
12833;DHT22;6483;51.310;4.462;2022-12-19T05:15:20;7.30;99.90
12833;DHT22;6483;51.310;4.462;2022-12-19T05:17:47;7.30;99.90
12833;DHT22;6483;51.310;4.462;2022-12-19T05:20:12;7.30;99.90
12833;DHT22;6483;51.310;4.462;2022-12-19T05:22:38;7.30;99.90
12833;DHT22;6483;51.310;4.462;2022-12-19T05:25:07;7.40;99.90
12833;DHT22;6483;51.310;4.462;2022-12-19T05:27:33;7.40;99.90
12833;DHT22;6483;51.310;4.462;2022-12-19T05:30:00;7.40;99.90
12833;DHT22;6483;51.310;4.462;2022-12-19T05:32:29;7.40;99.90
12833;DHT22;6483;51.310;4.462;2022-12-19T05:35:17;7.50;99.90
12833;DHT22;6483;51.310;4.462;2022-12-19T05:37:50;7.50;99.90
12833;DHT22;6483;51.310;4.462;2022-12-19T05:40:18;7.50;99.90
12833;DHT22;6483;51.310;4.462;2022-12-19T05:42:45;7.50;99.90
12833;DHT22;6483;51.310;4.462;2022-12-19T05:45:12;7.70;99.90
12833;DHT22;6483;51.310;4.462;2022-12-19T05:47:40;7.60;99.90
12833;DHT22;6483;51.310;4.462;2022-12-19T05:50:12;7.60;99.90
12833;DHT22;6483;51.310;4.462;2022-12-19T05:52:38;7.60;99.90
12833;DHT22;6483;51.310;4.462;2022-12-19T05:55:07;7.70;99.90
12833;DHT22;6483;51.310;4.462;2022-12-19T05:57:36;7.70;99.90
12833;DHT22;6483;51.310;4.462;2022-12-19T06:00:08;7.70;99.90
12833;DHT22;6483;51.310;4.462;2022-12-19T06:02:35;7.80;99.90
12833;DHT22;6483;51.310;4.462;2022-12-19T06:05:01;7.80;99.90
12833;DHT22;6483;51.310;4.462;2022-12-19T06:07:32;7.80;99.90
12833;DHT22;6483;51.310;4.462;2022-12-19T06:09:58;7.80;99.90
12833;DHT22;6483;51.310;4.462;2022-12-19T06:12:27;7.80;99.90
12833;DHT22;6483;51.310;4.462;2022-12-19T06:14:52;7.80;99.90
12833;DHT22;6483;51.310;4.462;2022-12-19T06:17:18;7.80;99.90
12833;DHT22;6483;51.310;4.462;2022-12-19T06:19:44;7.90;99.90
12833;DHT22;6483;51.310;4.462;2022-12-19T06:22:13;7.90;99.90
12833;DHT22;6483;51.310;4.462;2022-12-19T06:24:38;7.90;99.90
12833;DHT22;6483;51.310;4.462;2022-12-19T06:27:04;8.00;99.90
12833;DHT22;6483;51.310;4.462;2022-12-19T06:29:34;7.90;99.90
12833;DHT22;6483;51.310;4.462;2022-12-19T06:32:01;8.00;99.90
12833;DHT22;6483;51.310;4.462;2022-12-19T06:34:29;8.00;99.90
12833;DHT22;6483;51.310;4.462;2022-12-19T06:36:55;8.00;99.90
12833;DHT22;6483;51.310;4.462;2022-12-19T06:39:21;8.00;99.90
12833;DHT22;6483;51.310;4.462;2022-12-19T06:41:48;8.00;99.90
12833;DHT22;6483;51.310;4.462;2022-12-19T06:44:32;8.00;99.90
12833;DHT22;6483;51.310;4.462;2022-12-19T06:47:01;8.00;99.90
12833;DHT22;6483;51.310;4.462;2022-12-19T06:49:31;8.00;99.90
12833;DHT22;6483;51.310;4.462;2022-12-19T06:51:57;8.00;99.90
12833;DHT22;6483;51.310;4.462;2022-12-19T06:54:22;8.20;99.90
12833;DHT22;6483;51.310;4.462;2022-12-19T06:56:48;8.00;99.90
12833;DHT22;6483;51.310;4.462;2022-12-19T06:59:17;8.00;99.90
12833;DHT22;6483;51.310;4.462;2022-12-19T07:01:49;8.00;99.90
12833;DHT22;6483;51.310;4.462;2022-12-19T07:04:40;8.00;99.90
12833;DHT22;6483;51.310;4.462;2022-12-19T07:07:12;7.90;99.90
12833;DHT22;6483;51.310;4.462;2022-12-19T07:09:41;8.00;99.90
12833;DHT22;6483;51.310;4.462;2022-12-19T07:12:10;8.00;99.90
12833;DHT22;6483;51.310;4.462;2022-12-19T07:14:39;8.00;99.90
12833;DHT22;6483;51.310;4.462;2022-12-19T07:17:04;8.00;99.90
12833;DHT22;6483;51.310;4.462;2022-12-19T07:19:31;8.00;99.90
12833;DHT22;6483;51.310;4.462;2022-12-19T07:22:01;8.00;99.90
12833;DHT22;6483;51.310;4.462;2022-12-19T07:24:28;8.00;99.90
12833;DHT22;6483;51.310;4.462;2022-12-19T07:26:54;8.10;99.90
12833;DHT22;6483;51.310;4.462;2022-12-19T07:29:21;8.10;99.90
12833;DHT22;6483;51.310;4.462;2022-12-19T07:31:47;8.10;99.90
12833;DHT22;6483;51.310;4.462;2022-12-19T07:34:30;8.20;99.90
12833;DHT22;6483;51.310;4.462;2022-12-19T07:36:56;8.20;99.90
12833;DHT22;6483;51.310;4.462;2022-12-19T07:39:22;8.30;99.90
12833;DHT22;6483;51.310;4.462;2022-12-19T07:41:50;8.40;99.90
12833;DHT22;6483;51.310;4.462;2022-12-19T07:44:16;8.40;99.90
12833;DHT22;6483;51.310;4.462;2022-12-19T07:46:42;8.60;99.90
12833;DHT22;6483;51.310;4.462;2022-12-19T07:49:09;8.60;99.90
12833;DHT22;6483;51.310;4.462;2022-12-19T07:51:43;8.60;99.90
12833;DHT22;6483;51.310;4.462;2022-12-19T07:54:23;8.70;99.90
12833;DHT22;6483;51.310;4.462;2022-12-19T07:56:52;8.70;99.90
12833;DHT22;6483;51.310;4.462;2022-12-19T07:59:19;8.70;99.90
12833;DHT22;6483;51.310;4.462;2022-12-19T08:01:45;8.80;99.90
12833;DHT22;6483;51.310;4.462;2022-12-19T08:04:10;8.70;99.90
12833;DHT22;6483;51.310;4.462;2022-12-19T08:06:36;8.80;99.90
12833;DHT22;6483;51.310;4.462;2022-12-19T08:09:02;8.80;99.90
12833;DHT22;6483;51.310;4.462;2022-12-19T08:11:27;8.80;99.90
12833;DHT22;6483;51.310;4.462;2022-12-19T08:13:55;8.80;99.90
12833;DHT22;6483;51.310;4.462;2022-12-19T08:16:23;8.90;99.90
12833;DHT22;6483;51.310;4.462;2022-12-19T08:18:48;8.90;99.90
12833;DHT22;6483;51.310;4.462;2022-12-19T08:21:14;8.90;99.90
12833;DHT22;6483;51.310;4.462;2022-12-19T08:23:40;9.00;99.90
12833;DHT22;6483;51.310;4.462;2022-12-19T08:26:15;9.00;99.90
12833;DHT22;6483;51.310;4.462;2022-12-19T08:28:41;9.00;99.90
12833;DHT22;6483;51.310;4.462;2022-12-19T08:31:10;9.10;99.90
12833;DHT22;6483;51.310;4.462;2022-12-19T08:33:36;9.10;99.90
12833;DHT22;6483;51.310;4.462;2022-12-19T08:36:07;9.10;99.90
12833;DHT22;6483;51.310;4.462;2022-12-19T08:38:34;9.10;99.90
12833;DHT22;6483;51.310;4.462;2022-12-19T08:41:00;9.10;99.90
12833;DHT22;6483;51.310;4.462;2022-12-19T08:43:26;9.10;99.90
12833;DHT22;6483;51.310;4.462;2022-12-19T08:45:52;9.10;99.90
12833;DHT22;6483;51.310;4.462;2022-12-19T08:48:19;9.20;99.90
12833;DHT22;6483;51.310;4.462;2022-12-19T08:50:59;9.20;99.90
12833;DHT22;6483;51.310;4.462;2022-12-19T08:53:27;9.20;99.90
12833;DHT22;6483;51.310;4.462;2022-12-19T08:56:04;9.20;99.90
12833;DHT22;6483;51.310;4.462;2022-12-19T08:58:33;9.20;99.90
12833;DHT22;6483;51.310;4.462;2022-12-19T09:01:05;9.30;99.90
12833;DHT22;6483;51.310;4.462;2022-12-19T09:03:33;9.40;99.90
12833;DHT22;6483;51.310;4.462;2022-12-19T09:06:01;9.40;99.90
12833;DHT22;6483;51.310;4.462;2022-12-19T09:08:27;9.40;99.90
12833;DHT22;6483;51.310;4.462;2022-12-19T09:11:05;9.40;99.90
12833;DHT22;6483;51.310;4.462;2022-12-19T09:13:32;9.50;99.90
12833;DHT22;6483;51.310;4.462;2022-12-19T09:16:12;9.50;99.90
12833;DHT22;6483;51.310;4.462;2022-12-19T09:18:39;9.60;99.90
12833;DHT22;6483;51.310;4.462;2022-12-19T09:21:05;9.60;99.90
12833;DHT22;6483;51.310;4.462;2022-12-19T09:23:31;9.60;99.90
12833;DHT22;6483;51.310;4.462;2022-12-19T09:26:08;9.60;99.90
12833;DHT22;6483;51.310;4.462;2022-12-19T09:28:35;9.70;99.90
12833;DHT22;6483;51.310;4.462;2022-12-19T09:31:04;9.70;99.90
12833;DHT22;6483;51.310;4.462;2022-12-19T09:33:31;9.70;99.90
12833;DHT22;6483;51.310;4.462;2022-12-19T09:35:58;9.70;99.90
12833;DHT22;6483;51.310;4.462;2022-12-19T09:38:26;9.70;99.90
12833;DHT22;6483;51.310;4.462;2022-12-19T09:48:53;9.80;99.90
12833;DHT22;6483;51.310;4.462;2022-12-19T09:51:43;9.70;99.90
12833;DHT22;6483;51.310;4.462;2022-12-19T09:54:17;9.70;99.90
12833;DHT22;6483;51.310;4.462;2022-12-19T09:56:45;9.70;99.90
12833;DHT22;6483;51.310;4.462;2022-12-19T09:59:18;9.60;99.90
12833;DHT22;6483;51.310;4.462;2022-12-19T10:07:57;9.00;99.90
12833;DHT22;6483;51.310;4.462;2022-12-19T10:11:04;8.90;99.90
12833;DHT22;6483;51.310;4.462;2022-12-19T10:25:18;8.80;99.90
12833;DHT22;6483;51.310;4.462;2022-12-19T10:28:05;8.80;99.90
12833;DHT22;6483;51.310;4.462;2022-12-19T10:30:41;8.80;99.90
12833;DHT22;6483;51.310;4.462;2022-12-19T10:33:23;8.80;99.90
12833;DHT22;6483;51.310;4.462;2022-12-19T10:35:54;8.80;99.90
12833;DHT22;6483;51.310;4.462;2022-12-19T10:38:34;8.80;99.90
12833;DHT22;6483;51.310;4.462;2022-12-19T10:41:23;8.80;99.90
12833;DHT22;6483;51.310;4.462;2022-12-19T10:46:49;8.90;99.90
12833;DHT22;6483;51.310;4.462;2022-12-19T10:49:25;9.10;99.90
12833;DHT22;6483;51.310;4.462;2022-12-19T10:51:56;9.10;99.90
12833;DHT22;6483;51.310;4.462;2022-12-19T10:54:24;9.20;99.90
12833;DHT22;6483;51.310;4.462;2022-12-19T10:56:49;9.30;99.90
12833;DHT22;6483;51.310;4.462;2022-12-19T10:59:17;9.30;99.90
12833;DHT22;6483;51.310;4.462;2022-12-19T11:01:45;9.30;99.90
12833;DHT22;6483;51.310;4.462;2022-12-19T11:04:32;9.30;99.90
12833;DHT22;6483;51.310;4.462;2022-12-19T11:09:31;9.40;99.90
12833;DHT22;6483;51.310;4.462;2022-12-19T11:12:12;9.50;99.90
12833;DHT22;6483;51.310;4.462;2022-12-19T11:14:45;9.60;99.90
12833;DHT22;6483;51.310;4.462;2022-12-19T11:17:36;9.60;99.90
12833;DHT22;6483;51.310;4.462;2022-12-19T11:20:31;9.70;99.90
12833;DHT22;6483;51.310;4.462;2022-12-19T11:22:58;9.70;99.90
12833;DHT22;6483;51.310;4.462;2022-12-19T11:25:42;9.80;99.90
12833;DHT22;6483;51.310;4.462;2022-12-19T11:28:26;9.80;99.90
12833;DHT22;6483;51.310;4.462;2022-12-19T11:31:15;9.90;99.90
12833;DHT22;6483;51.310;4.462;2022-12-19T11:34:02;10.00;99.90
12833;DHT22;6483;51.310;4.462;2022-12-19T11:36:35;10.00;99.90
12833;DHT22;6483;51.310;4.462;2022-12-19T11:39:02;10.10;99.90
12833;DHT22;6483;51.310;4.462;2022-12-19T11:41:33;10.20;99.90
12833;DHT22;6483;51.310;4.462;2022-12-19T11:44:04;10.40;99.90
12833;DHT22;6483;51.310;4.462;2022-12-19T11:46:49;10.50;99.90
12833;DHT22;6483;51.310;4.462;2022-12-19T11:49:37;10.60;99.90
12833;DHT22;6483;51.310;4.462;2022-12-19T11:52:27;10.70;99.90
12833;DHT22;6483;51.310;4.462;2022-12-19T11:55:14;10.80;99.90
12833;DHT22;6483;51.310;4.462;2022-12-19T11:57:41;10.80;99.90
12833;DHT22;6483;51.310;4.462;2022-12-19T12:00:17;10.90;99.90
12833;DHT22;6483;51.310;4.462;2022-12-19T12:05:41;10.90;99.90
12833;DHT22;6483;51.310;4.462;2022-12-19T12:14:21;10.90;99.90
12833;DHT22;6483;51.310;4.462;2022-12-19T12:25:28;10.90;99.90
12833;DHT22;6483;51.310;4.462;2022-12-19T12:34:06;10.90;99.90
12833;DHT22;6483;51.310;4.462;2022-12-19T12:39:39;10.90;99.90
12833;DHT22;6483;51.310;4.462;2022-12-19T12:45:32;10.90;99.90
12833;DHT22;6483;51.310;4.462;2022-12-19T12:47:56;10.90;99.90
12833;DHT22;6483;51.310;4.462;2022-12-19T12:50:24;10.90;99.90
12833;DHT22;6483;51.310;4.462;2022-12-19T12:52:57;11.00;99.90
12833;DHT22;6483;51.310;4.462;2022-12-19T12:55:25;10.90;99.90
12833;DHT22;6483;51.310;4.462;2022-12-19T12:57:52;10.90;99.90
12833;DHT22;6483;51.310;4.462;2022-12-19T13:03:04;11.00;99.90
12833;DHT22;6483;51.310;4.462;2022-12-19T13:05:39;10.90;99.90
12833;DHT22;6483;51.310;4.462;2022-12-19T13:08:46;10.50;99.90
12833;DHT22;6483;51.310;4.462;2022-12-19T13:11:40;11.00;99.90
12833;DHT22;6483;51.310;4.462;2022-12-19T13:20:42;11.10;99.90
12833;DHT22;6483;51.310;4.462;2022-12-19T13:23:21;11.10;99.90
12833;DHT22;6483;51.310;4.462;2022-12-19T13:25:52;11.00;99.90
12833;DHT22;6483;51.310;4.462;2022-12-19T13:39:32;11.00;99.90
12833;DHT22;6483;51.310;4.462;2022-12-19T13:42:14;11.00;99.90
12833;DHT22;6483;51.310;4.462;2022-12-19T13:47:49;12.00;99.90
12833;DHT22;6483;51.310;4.462;2022-12-19T13:50:27;11.00;99.90
12833;DHT22;6483;51.310;4.462;2022-12-19T13:52:54;11.10;99.90
12833;DHT22;6483;51.310;4.462;2022-12-19T13:55:20;11.20;99.90
12833;DHT22;6483;51.310;4.462;2022-12-19T13:57:50;11.20;99.90
12833;DHT22;6483;51.310;4.462;2022-12-19T14:00:40;11.30;99.90
12833;DHT22;6483;51.310;4.462;2022-12-19T14:03:15;11.20;99.90
12833;DHT22;6483;51.310;4.462;2022-12-19T14:05:43;11.30;99.90
12833;DHT22;6483;51.310;4.462;2022-12-19T14:08:15;11.30;99.90
12833;DHT22;6483;51.310;4.462;2022-12-19T14:10:48;11.30;99.90
12833;DHT22;6483;51.310;4.462;2022-12-19T14:13:19;11.50;99.90
12833;DHT22;6483;51.310;4.462;2022-12-19T14:16:27;11.60;99.90
12833;DHT22;6483;51.310;4.462;2022-12-19T14:18:53;11.70;99.90
12833;DHT22;6483;51.310;4.462;2022-12-19T14:21:30;11.60;99.90
12833;DHT22;6483;51.310;4.462;2022-12-19T14:24:18;11.50;99.90
12833;DHT22;6483;51.310;4.462;2022-12-19T14:26:56;11.40;99.90
12833;DHT22;6483;51.310;4.462;2022-12-19T14:29:29;11.40;99.90
12833;DHT22;6483;51.310;4.462;2022-12-19T14:31:56;11.40;99.90
12833;DHT22;6483;51.310;4.462;2022-12-19T14:34:29;11.40;99.90
12833;DHT22;6483;51.310;4.462;2022-12-19T14:36:57;11.30;99.90
12833;DHT22;6483;51.310;4.462;2022-12-19T14:39:56;11.30;99.90
12833;DHT22;6483;51.310;4.462;2022-12-19T14:42:26;11.30;99.90
12833;DHT22;6483;51.310;4.462;2022-12-19T14:47:56;11.30;99.90
12833;DHT22;6483;51.310;4.462;2022-12-19T14:50:30;11.30;99.90
12833;DHT22;6483;51.310;4.462;2022-12-19T14:56:14;11.20;99.90
12833;DHT22;6483;51.310;4.462;2022-12-19T14:58:40;11.10;99.90
12833;DHT22;6483;51.310;4.462;2022-12-19T15:01:25;11.10;99.90
12833;DHT22;6483;51.310;4.462;2022-12-19T15:06:27;10.70;99.90
12833;DHT22;6483;51.310;4.462;2022-12-19T15:09:00;10.60;99.90
12833;DHT22;6483;51.310;4.462;2022-12-19T15:11:29;10.40;99.90
12833;DHT22;6483;51.310;4.462;2022-12-19T15:14:23;10.40;99.90
12833;DHT22;6483;51.310;4.462;2022-12-19T15:17:03;10.30;99.90
12833;DHT22;6483;51.310;4.462;2022-12-19T15:19:35;10.40;99.90
12833;DHT22;6483;51.310;4.462;2022-12-19T15:22:01;10.50;99.90
12833;DHT22;6483;51.310;4.462;2022-12-19T15:24:26;10.60;99.90
12833;DHT22;6483;51.310;4.462;2022-12-19T15:26:52;10.70;99.90
12833;DHT22;6483;51.310;4.462;2022-12-19T15:29:23;10.70;99.90
12833;DHT22;6483;51.310;4.462;2022-12-19T15:31:50;10.80;99.90
12833;DHT22;6483;51.310;4.462;2022-12-19T15:36:54;10.90;99.90
12833;DHT22;6483;51.310;4.462;2022-12-19T15:39:21;10.90;99.90
12833;DHT22;6483;51.310;4.462;2022-12-19T15:41:52;10.90;99.90
12833;DHT22;6483;51.310;4.462;2022-12-19T15:44:36;10.80;99.90
12833;DHT22;6483;51.310;4.462;2022-12-19T15:47:04;10.80;99.90
12833;DHT22;6483;51.310;4.462;2022-12-19T15:49:30;10.80;99.90
12833;DHT22;6483;51.310;4.462;2022-12-19T15:52:00;10.80;99.90
12833;DHT22;6483;51.310;4.462;2022-12-19T15:54:29;10.80;99.90
12833;DHT22;6483;51.310;4.462;2022-12-19T15:56:55;10.80;99.90
12833;DHT22;6483;51.310;4.462;2022-12-19T15:59:57;10.80;99.90
12833;DHT22;6483;51.310;4.462;2022-12-19T16:02:20;10.80;99.90
12833;DHT22;6483;51.310;4.462;2022-12-19T16:04:49;10.70;99.90
12833;DHT22;6483;51.310;4.462;2022-12-19T16:07:22;10.70;99.90
12833;DHT22;6483;51.310;4.462;2022-12-19T16:09:50;10.60;99.90
12833;DHT22;6483;51.310;4.462;2022-12-19T16:12:35;10.50;99.90
12833;DHT22;6483;51.310;4.462;2022-12-19T16:15:03;10.40;99.90
12833;DHT22;6483;51.310;4.462;2022-12-19T16:17:32;10.40;99.90
12833;DHT22;6483;51.310;4.462;2022-12-19T16:19:58;10.40;99.90
12833;DHT22;6483;51.310;4.462;2022-12-19T16:22:28;10.40;99.90
12833;DHT22;6483;51.310;4.462;2022-12-19T16:24:54;10.40;99.90
12833;DHT22;6483;51.310;4.462;2022-12-19T16:27:29;10.40;99.90
12833;DHT22;6483;51.310;4.462;2022-12-19T16:30:14;10.40;99.90
12833;DHT22;6483;51.310;4.462;2022-12-19T16:32:43;10.50;99.90
12833;DHT22;6483;51.310;4.462;2022-12-19T16:35:18;10.50;99.90
12833;DHT22;6483;51.310;4.462;2022-12-19T16:37:45;10.50;99.90
12833;DHT22;6483;51.310;4.462;2022-12-19T16:40:22;10.60;99.90
12833;DHT22;6483;51.310;4.462;2022-12-19T16:43:14;10.60;99.90
12833;DHT22;6483;51.310;4.462;2022-12-19T16:45:42;10.60;99.90
12833;DHT22;6483;51.310;4.462;2022-12-19T16:48:34;10.60;99.90
12833;DHT22;6483;51.310;4.462;2022-12-19T16:51:00;10.50;99.90
12833;DHT22;6483;51.310;4.462;2022-12-19T16:53:29;10.50;99.90
12833;DHT22;6483;51.310;4.462;2022-12-19T16:55:55;10.40;99.90
12833;DHT22;6483;51.310;4.462;2022-12-19T16:58:24;10.30;99.90
12833;DHT22;6483;51.310;4.462;2022-12-19T17:00:52;10.20;99.90
12833;DHT22;6483;51.310;4.462;2022-12-19T17:05:53;10.30;99.90
12833;DHT22;6483;51.310;4.462;2022-12-19T17:08:20;10.20;99.90
12833;DHT22;6483;51.310;4.462;2022-12-19T17:10:46;10.30;99.90
12833;DHT22;6483;51.310;4.462;2022-12-19T17:13:16;10.30;99.90
12833;DHT22;6483;51.310;4.462;2022-12-19T17:15:45;10.30;99.90
12833;DHT22;6483;51.310;4.462;2022-12-19T17:18:35;10.40;99.90
12833;DHT22;6483;51.310;4.462;2022-12-19T17:21:06;10.40;99.90
12833;DHT22;6483;51.310;4.462;2022-12-19T17:23:32;10.40;99.90
12833;DHT22;6483;51.310;4.462;2022-12-19T17:25:58;10.40;99.90
12833;DHT22;6483;51.310;4.462;2022-12-19T17:28:26;10.50;99.90
12833;DHT22;6483;51.310;4.462;2022-12-19T17:30:54;10.50;99.90
12833;DHT22;6483;51.310;4.462;2022-12-19T17:33:24;10.60;99.90
12833;DHT22;6483;51.310;4.462;2022-12-19T17:35:52;10.70;99.90
12833;DHT22;6483;51.310;4.462;2022-12-19T17:38:18;10.70;99.90
12833;DHT22;6483;51.310;4.462;2022-12-19T17:40:44;10.70;99.90
12833;DHT22;6483;51.310;4.462;2022-12-19T17:43:11;10.70;99.90
12833;DHT22;6483;51.310;4.462;2022-12-19T17:45:37;10.80;99.90
12833;DHT22;6483;51.310;4.462;2022-12-19T17:48:06;10.80;99.90
12833;DHT22;6483;51.310;4.462;2022-12-19T17:50:40;10.90;99.90
12833;DHT22;6483;51.310;4.462;2022-12-19T17:53:12;10.90;99.90
12833;DHT22;6483;51.310;4.462;2022-12-19T17:55:38;10.90;99.90
12833;DHT22;6483;51.310;4.462;2022-12-19T17:58:04;10.90;99.90
12833;DHT22;6483;51.310;4.462;2022-12-19T18:00:31;10.90;99.90
12833;DHT22;6483;51.310;4.462;2022-12-19T18:03:04;11.00;99.90
12833;DHT22;6483;51.310;4.462;2022-12-19T18:05:33;11.00;99.90
12833;DHT22;6483;51.310;4.462;2022-12-19T18:08:00;10.90;99.90
12833;DHT22;6483;51.310;4.462;2022-12-19T18:10:29;10.90;99.90
12833;DHT22;6483;51.310;4.462;2022-12-19T18:12:56;10.90;99.90
12833;DHT22;6483;51.310;4.462;2022-12-19T18:15:23;10.90;99.90
12833;DHT22;6483;51.310;4.462;2022-12-19T18:17:51;10.90;99.90
12833;DHT22;6483;51.310;4.462;2022-12-19T18:20:29;10.90;99.90
12833;DHT22;6483;51.310;4.462;2022-12-19T18:23:00;10.80;99.90
12833;DHT22;6483;51.310;4.462;2022-12-19T18:25:28;10.80;99.90
12833;DHT22;6483;51.310;4.462;2022-12-19T18:27:56;10.80;99.90